Aérodrome :
LOGIN :

S'inscrire | Disclaimer

   EN    FR    IT 

 










Légende :    VFR   VFR Marginal   IFR   IFR Intensif   IFR Très Intensif
Visi : 
Plafond : 
>= 8 km
>= 3000ft
5 à 8 km
1000 à 3000 ft
1500m à 5 km
500 à 1000 ft
800 à 1500m
200 à 500 ft
< 800m
< 200 ft
Symboles :   Orages  Brouillard  Fortes neiges  Fortes précipitations  Vent > 20 kt
SIGMETs :   Divers  Orages  Givrage  Turbulence  Onde Orograph.  Cendres Volcan.







- Altitude de l'aérodrome : 94 ft
- Code IATA : QLT


LIRL - Latina Casale (military)

DERNIER METAR :
  • 191355Z 27008KT 9999 FEW020 SCT040 14/04 Q1023 RMK BKN MON LIB NC VIS MIN 9999 WIND THR12 27008KT WIND THR30 27008KT BLU

METARs EXPIRÉS :
  • 191255Z 25005KT 8000 FEW020 SCT030 13/04 Q1023 RMK BKN MON LIB NC VIS MIN 8000 WIND THR12 28003KT WIND THR30 28004KT BLU
  • 191155Z 35003KT 9999 FEW020 BKN040 13/04 Q1024 RMK BKN MON LIB NC VIS MIN 9999 WIND THR12 33004KT WIND THR30 35004KT BLU

TAF TAF LIRL
Valide du 19 à 15h jusqu'au 20 à 00h UTC


191400Z 1915/1924 33005KT 9999 FEW020 SCT030
TEMPO 1920/1924 5000 BR
Pas de NOTAMs connus pour ce terrain.
2 SIGMETs publiés pour la FIR Roma (LIRR) :
 
Annulation du SIGMET 2 
LIRR SIGMET 5 VALID 191202/191430 LIIB
LIRR ROMA FIR CNL SIGMET 2 190722/191430 NC=
Cendres volcaniques
LIRR SIGMET 4 VALID 191200/191830 LIIB
LIRR ROMA FIR VA ERUPTION MT ETNA PSN N3744 E01500 VA CLD OBS AT 1200Z WI N3725 E01445 - N3755 E01400 - N3830 E01434 - N3740 E01504 - N3725 E01445 MOV W 10KT SFC/FL180 NC FCST AT 1800Z WI N3730 E01425 - N3804 E01319 - N3845 E01355 - N3734 E01510 - N3730 E01425=



MET'MAP, la Météo Aéronautique d'un coup d'oeil ! - Copyright ORBIFLY Décembre 2007 - Disclaimer

ORBIFLY MET'MAP TEAM :

Programmation & Développement : Alexandra Zaïnal
Conception & Développement : Baudouin d'Aumeries
Co-Programmation & Développement : Marc-Olivier Méhu
Soutien technique & logistique : Manuel Goepfert

Contact : metmap@orbifly.com




SOURCES & CREDITS :

   NOAA